createdAt,value
2023-03-20T00:02:06.601Z,98523.38
2023-03-20T00:04:32.967Z,98524.69
2023-03-20T00:06:59.292Z,98516.16
2023-03-20T00:09:26.581Z,98511.63
2023-03-20T00:11:53.322Z,98510.03
2023-03-20T00:14:20.346Z,98506.81
2023-03-20T00:16:46.899Z,98512.13
2023-03-20T00:19:17.427Z,98516.66
2023-03-20T00:21:45.869Z,98516.13
2023-03-20T00:24:12.256Z,98514.53
2023-03-20T00:26:39.325Z,98503.88
2023-03-20T00:29:05.675Z,98508.09
2023-03-20T00:31:38.450Z,98506.25
2023-03-20T00:34:06.362Z,98509.97
2023-03-20T00:36:32.757Z,98520.38
2023-03-20T00:38:59.318Z,98517.97
2023-03-20T00:41:26.409Z,98509.41
2023-03-20T00:43:53.893Z,98526.50
2023-03-20T00:46:20.643Z,98526.75
2023-03-20T00:48:47.517Z,98524.31
2023-03-20T00:51:13.833Z,98520.06
2023-03-20T00:53:40.279Z,98529.13
2023-03-20T00:56:06.698Z,98524.84
2023-03-20T00:58:33.035Z,98526.94
2023-03-20T01:00:59.590Z,98526.16
2023-03-20T01:03:26.117Z,98525.91
2023-03-20T01:05:52.421Z,98526.41
2023-03-20T01:08:19.442Z,98523.75
2023-03-20T01:10:45.856Z,98526.13
2023-03-20T01:13:28.622Z,98529.03
2023-03-20T01:15:55.276Z,98529.28
2023-03-20T01:18:21.824Z,98526.63
2023-03-20T01:20:48.400Z,98534.88
2023-03-20T01:23:14.804Z,98535.66
2023-03-20T01:25:41.263Z,98538.59
2023-03-20T01:28:14.477Z,98542.31
2023-03-20T01:30:40.986Z,98536.44
2023-03-20T01:33:12.488Z,98540.69
2023-03-20T01:35:38.940Z,98546.28
2023-03-20T01:38:09.964Z,98544.69
2023-03-20T01:40:42.766Z,98541.75
2023-03-20T01:43:12.407Z,98540.16
2023-03-20T01:45:39.056Z,98536.69
2023-03-20T01:48:13.580Z,98537.50
2023-03-20T01:50:39.906Z,98525.25
2023-03-20T01:53:14.385Z,98521.78
2023-03-20T01:55:40.878Z,98526.53
2023-03-20T01:58:08.239Z,98528.41
2023-03-20T02:00:34.659Z,98539.31
2023-03-20T02:03:00.976Z,98542.25
2023-03-20T02:05:27.297Z,98547.56
2023-03-20T02:07:59.534Z,98550.47
2023-03-20T02:10:25.868Z,98556.84
2023-03-20T02:12:52.231Z,98558.97
2023-03-20T02:15:18.601Z,98560.81
2023-03-20T02:17:45.106Z,98553.88
2023-03-20T02:20:16.827Z,98564.00
2023-03-20T02:22:46.258Z,98564.00
2023-03-20T02:25:26.029Z,98574.06
2023-03-20T02:28:03.799Z,98568.75
2023-03-20T02:30:40.089Z,98570.59
2023-03-20T02:33:09.277Z,98576.72
2023-03-20T02:35:40.367Z,98567.41
2023-03-20T02:38:25.219Z,98569.25
2023-03-20T02:40:57.357Z,98575.38
2023-03-20T02:43:26.052Z,98576.19
2023-03-20T02:45:58.024Z,98562.88
2023-03-20T02:48:29.103Z,98567.66
2023-03-20T02:51:04.689Z,98564.44
2023-03-20T02:53:32.539Z,98572.16
2023-03-20T02:56:18.090Z,98564.44
2023-03-20T02:58:46.896Z,98561.22
2023-03-20T03:01:17.994Z,98570.03
2023-03-20T03:03:45.932Z,98563.41
2023-03-20T03:06:14.853Z,98561.41
2023-03-20T03:08:42.446Z,98555.91
2023-03-20T03:11:08.885Z,98550.38
2023-03-20T03:13:36.258Z,98547.50
2023-03-20T03:16:06.672Z,98552.84
2023-03-20T03:18:34.474Z,98549.69
2023-03-20T03:21:01.048Z,98547.34
2023-03-20T03:23:31.522Z,98556.13
2023-03-20T03:25:58.979Z,98556.13
2023-03-20T03:28:25.269Z,98552.66
2023-03-20T03:30:52.416Z,98563.56
2023-03-20T03:33:23.367Z,98559.59
2023-03-20T03:35:49.872Z,98561.94
2023-03-20T03:38:45.665Z,98571.31
2023-03-20T03:41:15.026Z,98565.44
2023-03-20T03:43:46.975Z,98566.06
2023-03-20T03:46:27.278Z,98560.00
2023-03-20T03:48:55.458Z,98561.94
2023-03-20T03:51:23.352Z,98564.91
2023-03-20T03:53:52.280Z,98563.03
2023-03-20T03:56:20.597Z,98565.69
2023-03-20T03:58:51.534Z,98572.38
2023-03-20T04:01:17.857Z,98563.56
2023-03-20T04:03:50.682Z,98567.88
2023-03-20T04:06:17.081Z,98563.34
2023-03-20T04:08:43.448Z,98564.94
2023-03-20T04:11:16.710Z,98560.41
2023-03-20T04:13:43.019Z,98558.81
2023-03-20T04:16:15.895Z,98559.31
2023-03-20T04:18:42.429Z,98550.50
2023-03-20T04:21:08.758Z,98541.97
2023-03-20T04:23:35.068Z,98548.63
2023-03-20T04:26:01.736Z,98538.00
2023-03-20T04:28:28.052Z,98531.59
2023-03-20T04:30:54.872Z,98536.41
2023-03-20T04:33:21.210Z,98527.88
2023-03-20T04:35:47.579Z,98532.66
2023-03-20T04:38:13.913Z,98533.72
2023-03-20T04:40:40.543Z,98535.84
2023-03-20T04:43:06.870Z,98526.22
2023-03-20T04:45:33.243Z,98524.91
2023-03-20T04:47:59.608Z,98522.53
2023-03-20T04:50:25.984Z,98518.28
2023-03-20T04:52:52.285Z,98523.16
2023-03-20T04:55:18.614Z,98521.28
2023-03-20T04:57:45.148Z,98519.97
2023-03-20T05:00:11.640Z,98526.38
2023-03-20T05:02:37.983Z,98526.38
2023-03-20T05:05:04.444Z,98521.84
2023-03-20T05:07:30.921Z,98524.25
2023-03-20T05:09:57.287Z,98522.06
2023-03-20T05:12:23.692Z,98522.06
2023-03-20T05:14:50.221Z,98526.63
2023-03-20T05:17:18.186Z,98527.69
2023-03-20T05:19:44.508Z,98525.28
2023-03-20T05:22:11.083Z,98529.03
2023-03-20T05:24:37.386Z,98525.56
2023-03-20T05:27:03.686Z,98525.00
2023-03-20T05:29:30.014Z,98526.31
2023-03-20T05:31:56.328Z,98522.31
2023-03-20T05:34:22.633Z,98519.91
2023-03-20T05:36:48.945Z,98515.88
2023-03-20T05:39:15.281Z,98523.06
2023-03-20T05:41:43.449Z,98521.47
2023-03-20T05:44:11.125Z,98525.72
2023-03-20T05:46:37.511Z,98513.47
2023-03-20T05:49:03.906Z,98520.91
2023-03-20T05:51:30.224Z,98525.69
2023-03-20T05:53:56.697Z,98536.88
2023-03-20T05:56:23.126Z,98536.13
2023-03-20T05:58:49.512Z,98534.09
2023-03-20T06:01:18.180Z,98538.63
2023-03-20T06:03:44.635Z,98543.97
2023-03-20T06:06:11.013Z,98547.44
2023-03-20T06:08:37.367Z,98545.84
2023-03-20T06:11:04.050Z,98546.91
2023-03-20T06:13:30.351Z,98553.25
2023-03-20T06:15:56.756Z,98558.88
2023-03-20T06:18:23.132Z,98554.59
2023-03-20T06:20:53.590Z,98561.25
2023-03-20T06:23:20.165Z,98561.50
2023-03-20T06:25:46.497Z,98561.78
2023-03-20T06:28:12.963Z,98563.66
2023-03-20T06:30:39.288Z,98569.00
2023-03-20T06:33:08.724Z,98573.81
2023-03-20T06:35:35.400Z,98574.38
2023-03-20T06:38:02.235Z,98562.91
2023-03-20T06:40:28.579Z,98565.00
2023-03-20T06:42:54.952Z,98573.28
2023-03-20T06:45:21.381Z,98567.94
2023-03-20T06:47:47.691Z,98564.97
2023-03-20T06:50:14.167Z,98565.78
2023-03-20T06:52:40.499Z,98564.19
2023-03-20T06:55:07.341Z,98561.25
2023-03-20T06:57:33.764Z,98564.22
2023-03-20T07:00:00.140Z,98563.69
2023-03-20T07:02:26.466Z,98562.63
2023-03-20T07:04:52.789Z,98561.56
2023-03-20T07:07:19.142Z,98558.38
2023-03-20T07:09:45.457Z,98564.50
2023-03-20T07:12:14.423Z,98570.06
2023-03-20T07:14:41.911Z,98559.69
2023-03-20T07:17:11.616Z,98562.59
2023-03-20T07:19:38.293Z,98570.88
2023-03-20T07:22:06.331Z,98575.94
2023-03-20T07:24:32.750Z,98579.69
2023-03-20T07:26:59.080Z,98583.47
2023-03-20T07:29:25.460Z,98580.53
2023-03-20T07:31:52.125Z,98589.91
2023-03-20T07:34:18.491Z,98592.84
2023-03-20T07:36:44.838Z,98595.81
2023-03-20T07:39:11.171Z,98596.88
2023-03-20T07:41:37.574Z,98599.53
2023-03-20T07:44:03.884Z,98605.97
2023-03-20T07:46:30.389Z,98601.72
2023-03-20T07:48:58.116Z,98613.97
2023-03-20T07:51:24.659Z,98614.78
2023-03-20T07:53:50.975Z,98616.66
2023-03-20T07:56:17.318Z,98612.38
2023-03-20T07:58:43.639Z,98613.69
2023-03-20T08:01:09.977Z,98616.09
2023-03-20T08:03:36.406Z,98604.84
2023-03-20T08:06:04.163Z,98605.38
2023-03-20T08:08:30.679Z,98611.53
2023-03-20T08:10:57.241Z,98610.50
2023-03-20T08:13:23.559Z,98601.94
2023-03-20T08:15:49.892Z,98606.19
2023-03-20T08:18:16.221Z,98598.75
2023-03-20T08:20:42.559Z,98611.00
2023-03-20T08:23:08.912Z,98608.34
2023-03-20T08:25:35.774Z,98613.41
2023-03-20T08:28:02.338Z,98604.38
2023-03-20T08:30:28.743Z,98610.75
2023-03-20T08:32:55.338Z,98619.81
2023-03-20T08:35:32.468Z,98623.00
2023-03-20T08:37:59.468Z,98624.06
2023-03-20T08:40:25.786Z,98623.53
2023-03-20T08:42:52.108Z,98625.63
2023-03-20T08:45:18.435Z,98626.69
2023-03-20T08:47:48.270Z,98632.03
2023-03-20T08:50:14.692Z,98634.19
2023-03-20T08:52:44.296Z,98629.38
2023-03-20T08:55:13.851Z,98637.09
2023-03-20T08:57:40.791Z,98643.50
2023-03-20T09:00:07.373Z,98636.84
2023-03-20T09:02:34.011Z,98631.22
2023-03-20T09:05:00.551Z,98636.50
2023-03-20T09:07:26.930Z,98639.22
2023-03-20T09:09:53.249Z,98638.72
2023-03-20T09:12:19.572Z,98639.28
2023-03-20T09:14:46.063Z,98635.88
2023-03-20T09:17:12.640Z,98636.69
2023-03-20T09:19:44.509Z,98631.09
2023-03-20T09:22:12.637Z,98632.97
2023-03-20T09:24:38.957Z,98636.16
2023-03-20T09:27:05.397Z,98635.38
2023-03-20T09:29:31.856Z,98635.06
2023-03-20T09:31:58.253Z,98632.13
2023-03-20T09:34:24.644Z,98624.69
2023-03-20T09:36:51.519Z,98630.31
2023-03-20T09:39:18.881Z,98628.97
2023-03-20T09:41:56.596Z,98633.25
2023-03-20T09:44:35.022Z,98635.41
2023-03-20T09:47:19.863Z,98638.09
2023-03-20T09:49:59.209Z,98630.09
2023-03-20T09:52:30.252Z,98638.38
2023-03-20T09:54:57.669Z,98642.38
2023-03-20T09:57:25.895Z,98641.28
2023-03-20T09:59:54.414Z,98642.88
2023-03-20T10:02:24.433Z,98649.25
2023-03-20T10:04:54.262Z,98642.31
2023-03-20T10:07:21.049Z,98637.25
2023-03-20T10:09:47.567Z,98634.31
2023-03-20T10:12:37.059Z,98625.72
2023-03-20T10:15:10.452Z,98631.94
2023-03-20T10:17:43.081Z,98631.66
2023-03-20T10:20:09.655Z,98637.56
2023-03-20T10:22:36.534Z,98643.47
2023-03-20T10:25:21.342Z,98641.88
2023-03-20T10:28:00.681Z,98639.72
2023-03-20T10:30:26.998Z,98636.25
2023-03-20T10:32:59.521Z,98638.44
2023-03-20T10:35:32.218Z,98645.63
2023-03-20T10:38:12.050Z,98637.63
2023-03-20T10:40:39.352Z,98643.25
2023-03-20T10:43:21.669Z,98640.06
2023-03-20T10:45:48.841Z,98640.63
2023-03-20T10:48:16.871Z,98637.94
2023-03-20T10:50:56.475Z,98629.13
2023-03-20T10:53:25.655Z,98635.53
2023-03-20T10:55:52.035Z,98631.78
2023-03-20T10:58:20.022Z,98635.25
2023-03-20T11:00:46.974Z,98626.44
2023-03-20T11:03:17.585Z,98627.50
2023-03-20T11:05:43.920Z,98626.16
2023-03-20T11:08:13.775Z,98622.16
2023-03-20T11:10:41.418Z,98620.31
2023-03-20T11:13:22.945Z,98615.22
2023-03-20T11:15:49.264Z,98614.44
2023-03-20T11:18:15.703Z,98617.38
2023-03-20T11:20:46.362Z,98612.84
2023-03-20T11:23:16.862Z,98609.63
2023-03-20T11:25:48.602Z,98612.56
2023-03-20T11:28:21.834Z,98601.63
2023-03-20T11:31:03.549Z,98607.22
2023-03-20T11:33:31.118Z,98602.47
2023-03-20T11:35:58.053Z,98603.28
2023-03-20T11:38:24.439Z,98608.38
2023-03-20T11:40:52.495Z,98595.56
2023-03-20T11:43:19.866Z,98580.63
2023-03-20T11:45:47.242Z,98569.94
2023-03-20T11:48:18.143Z,98569.16
2023-03-20T11:51:03.550Z,98569.16
2023-03-20T11:53:32.950Z,98572.06
2023-03-20T11:56:04.010Z,98578.22
2023-03-20T11:58:30.338Z,98579.56
2023-03-20T12:00:56.724Z,98572.91
2023-03-20T12:03:42.730Z,98573.13
2023-03-20T12:06:16.553Z,98576.59
2023-03-20T12:08:43.385Z,98575.25
2023-03-20T12:11:17.840Z,98568.06
2023-03-20T12:13:44.632Z,98570.47
2023-03-20T12:16:12.065Z,98569.16
2023-03-20T12:18:42.642Z,98568.88
2023-03-20T12:21:14.659Z,98571.81
2023-03-20T12:23:45.502Z,98563.25
2023-03-20T12:26:23.977Z,98552.84
2023-03-20T12:29:10.483Z,98563.25
2023-03-20T12:31:40.393Z,98550.69
2023-03-20T12:34:11.442Z,98543.50
2023-03-20T12:36:39.329Z,98545.63
2023-03-20T12:39:06.754Z,98553.91
2023-03-20T12:41:39.112Z,98555.53
2023-03-20T12:44:24.144Z,98557.91
2023-03-20T12:47:00.313Z,98546.19
2023-03-20T12:49:44.671Z,98551.81
2023-03-20T12:52:10.933Z,98550.72
2023-03-20T12:54:46.384Z,98557.16
2023-03-20T12:57:19.231Z,98555.78
2023-03-20T13:00:03.641Z,98554.19
2023-03-20T13:02:32.478Z,98556.88
2023-03-20T13:05:08.467Z,98563.81
2023-03-20T13:07:42.381Z,98558.75
2023-03-20T13:10:12.321Z,98556.06
2023-03-20T13:12:57.663Z,98557.66
2023-03-20T13:15:44.616Z,98559.25
2023-03-20T13:18:19.700Z,98550.44
2023-03-20T13:20:50.795Z,98548.56
2023-03-20T13:23:17.039Z,98549.13
2023-03-20T13:25:53.603Z,98547.50
2023-03-20T13:28:37.325Z,98544.84
2023-03-20T13:31:15.926Z,98531.47
2023-03-20T13:33:47.748Z,98537.91
2023-03-20T13:36:20.362Z,98536.31
2023-03-20T13:38:47.723Z,98537.38
2023-03-20T13:41:14.047Z,98525.88
2023-03-20T13:43:40.454Z,98532.03
2023-03-20T13:46:08.736Z,98533.63
2023-03-20T13:48:35.204Z,98534.16
2023-03-20T13:51:22.138Z,98535.44
2023-03-20T13:53:54.354Z,98528.78
2023-03-20T13:56:26.903Z,98530.94
2023-03-20T13:59:02.923Z,98529.34
2023-03-20T14:01:29.543Z,98521.88
2023-03-20T14:03:55.980Z,98533.34
2023-03-20T14:06:31.264Z,98521.59
2023-03-20T14:08:57.759Z,98524.81
2023-03-20T14:11:24.181Z,98514.38
2023-03-20T14:14:03.502Z,98516.00
2023-03-20T14:16:29.815Z,98525.34
2023-03-20T14:19:06.766Z,98523.75
2023-03-20T14:21:33.583Z,98521.03
2023-03-20T14:24:10.710Z,98521.84
2023-03-20T14:26:37.870Z,98525.84
2023-03-20T14:29:10.366Z,98529.56
2023-03-20T14:31:41.814Z,98527.44
2023-03-20T14:34:11.689Z,98525.84
2023-03-20T14:36:57.670Z,98531.19
2023-03-20T14:39:29.716Z,98530.38
2023-03-20T14:42:17.485Z,98530.38
2023-03-20T14:45:02.623Z,98536.00
2023-03-20T14:47:32.250Z,98522.88
2023-03-20T14:50:17.328Z,98533.03
2023-03-20T14:53:10.394Z,98533.84
2023-03-20T14:55:56.973Z,98533.84
2023-03-20T14:58:36.409Z,98533.56
2023-03-20T15:01:03.506Z,98529.56
2023-03-20T15:03:29.951Z,98530.66
2023-03-20T15:05:56.975Z,98528.50
2023-03-20T15:08:24.176Z,98536.50
2023-03-20T15:10:51.594Z,98530.09
2023-03-20T15:13:17.976Z,98525.56
2023-03-20T15:15:54.659Z,98524.75
2023-03-20T15:18:21.203Z,98524.47
2023-03-20T15:20:47.669Z,98517.00
2023-03-20T15:23:13.996Z,98519.69
2023-03-20T15:25:43.967Z,98515.94
2023-03-20T15:28:19.443Z,98514.06
2023-03-20T15:30:46.248Z,98517.53
2023-03-20T15:33:20.376Z,98515.94
2023-03-20T15:35:46.752Z,98511.91
2023-03-20T15:38:13.808Z,98511.13
2023-03-20T15:40:50.671Z,98514.34
2023-03-20T15:43:24.386Z,98512.97
2023-03-20T15:45:51.139Z,98496.19
2023-03-20T15:48:18.384Z,98500.97
2023-03-20T15:50:46.090Z,98498.28
2023-03-20T15:53:17.081Z,98498.03
2023-03-20T15:55:47.098Z,98505.75
2023-03-20T15:58:14.106Z,98502.03
2023-03-20T16:03:07.155Z,98512.75
2023-03-20T16:05:33.472Z,98510.09
2023-03-20T16:08:11.654Z,98504.75
2023-03-20T16:10:40.775Z,98511.13
2023-03-20T16:13:07.084Z,98516.47
2023-03-20T16:15:33.407Z,98508.72
2023-03-20T16:18:03.629Z,98503.66
2023-03-20T16:20:31.049Z,98513.00
2023-03-20T16:22:59.677Z,98512.47
2023-03-20T16:25:26.005Z,98506.06
2023-03-20T16:27:52.353Z,98501.00
2023-03-20T16:30:19.684Z,98502.06
2023-03-20T16:32:47.332Z,98499.94
2023-03-20T16:35:17.881Z,98502.88
2023-03-20T16:37:48.920Z,98501.00
2023-03-20T16:40:16.855Z,98498.84
2023-03-20T16:42:43.187Z,98506.34
2023-03-20T16:45:17.456Z,98505.78
2023-03-20T16:47:45.920Z,98504.75
2023-03-20T16:50:17.430Z,98512.75
2023-03-20T16:52:48.043Z,98512.22
2023-03-20T16:55:18.546Z,98508.47
2023-03-20T16:57:46.110Z,98501.00
2023-03-20T17:00:22.591Z,98506.06
2023-03-20T17:02:52.867Z,98505.25
2023-03-20T17:05:21.903Z,98504.97
2023-03-20T17:07:51.547Z,98501.53
2023-03-20T17:10:17.949Z,98502.06
2023-03-20T17:12:44.813Z,98502.59
2023-03-20T17:15:14.415Z,98498.84
2023-03-20T17:17:41.454Z,98506.34
2023-03-20T17:20:08.124Z,98507.41
2023-03-20T17:22:34.439Z,98509.53
2023-03-20T17:25:01.003Z,98508.47
2023-03-20T17:27:27.348Z,98504.47
2023-03-20T17:29:55.751Z,98505.53
2023-03-20T17:32:25.036Z,98503.69
2023-03-20T17:34:51.395Z,98504.75
2023-03-20T17:37:20.742Z,98511.69
2023-03-20T17:39:47.057Z,98509.28
2023-03-20T17:42:20.492Z,98509.56
2023-03-20T17:44:47.070Z,98517.59
2023-03-20T17:47:16.778Z,98519.19
2023-03-20T17:49:43.320Z,98514.91
2023-03-20T17:52:12.068Z,98527.22
2023-03-20T17:54:38.385Z,98528.28
2023-03-20T17:57:04.721Z,98527.22
2023-03-20T17:59:31.342Z,98528.81
2023-03-20T18:01:57.753Z,98525.63
2023-03-20T18:04:24.650Z,98532.56
2023-03-20T18:06:51.245Z,98528.53
2023-03-20T18:09:17.648Z,98534.16
2023-03-20T18:11:43.978Z,98518.13
2023-03-20T18:14:12.190Z,98526.41
2023-03-20T18:16:38.526Z,98531.22
2023-03-20T18:19:05.363Z,98528.81
2023-03-20T18:21:31.766Z,98532.56
2023-03-20T18:23:58.145Z,98534.44
2023-03-20T18:26:25.505Z,98534.44
2023-03-20T18:28:52.172Z,98530.16
2023-03-20T18:31:19.055Z,98531.75
2023-03-20T18:33:51.814Z,98543.50
2023-03-20T18:36:22.226Z,98542.97
2023-03-20T18:38:48.562Z,98539.78
2023-03-20T18:41:14.915Z,98541.88
2023-03-20T18:43:41.319Z,98536.03
2023-03-20T18:46:11.458Z,98533.34
2023-03-20T18:48:37.760Z,98544.53
2023-03-20T18:51:04.130Z,98538.13
2023-03-20T18:53:30.583Z,98540.56
2023-03-20T18:55:56.907Z,98537.09
2023-03-20T18:58:24.393Z,98536.03
2023-03-20T19:00:50.827Z,98530.94
2023-03-20T19:03:17.268Z,98540.56
2023-03-20T19:05:43.608Z,98538.69
2023-03-20T19:08:13.519Z,98538.94
2023-03-20T19:10:40.114Z,98532.53
2023-03-20T19:13:06.862Z,98537.31
2023-03-20T19:15:35.635Z,98541.84
2023-03-20T19:18:02.441Z,98536.75
2023-03-20T19:20:28.760Z,98539.66
2023-03-20T19:22:55.085Z,98539.63
2023-03-20T19:25:22.086Z,98536.91
2023-03-20T19:27:48.544Z,98536.03
2023-03-20T19:30:44.133Z,98541.38
2023-03-20T19:33:10.470Z,98527.16
2023-03-20T19:35:58.705Z,98535.19
2023-03-20T19:38:23.170Z,98527.13
2023-03-20T19:40:51.413Z,98534.31
2023-03-20T19:43:17.714Z,98533.22
2023-03-20T19:45:44.045Z,98531.28
2023-03-20T19:48:15.428Z,98530.19
2023-03-20T19:50:43.764Z,98528.34
2023-03-20T19:53:10.665Z,98531.00
2023-03-20T19:55:37.398Z,98529.88
2023-03-20T19:58:04.058Z,98533.81
2023-03-20T20:03:20.823Z,98524.84
2023-03-20T20:05:47.307Z,98521.66
2023-03-20T20:08:30.029Z,98525.13
2023-03-20T20:11:00.010Z,98524.09
2023-03-20T20:13:29.937Z,98512.81
2023-03-20T20:15:57.791Z,98508.78
2023-03-20T20:18:24.364Z,98501.81
2023-03-20T20:21:54.803Z,98496.16
2023-03-20T20:23:38.280Z,98497.25
2023-03-20T20:26:04.886Z,98506.09
2023-03-20T20:28:31.550Z,98499.94
2023-03-20T20:30:57.888Z,98499.13
2023-03-20T20:33:28.729Z,98487.09
2023-03-20T20:36:26.926Z,98489.72
2023-03-20T20:38:50.531Z,98492.13
2023-03-20T20:41:17.877Z,98495.66
2023-03-20T20:46:30.593Z,98493.25
2023-03-20T20:48:57.372Z,98494.88
2023-03-20T20:51:23.771Z,98493.03
2023-03-20T20:53:50.210Z,98484.69
2023-03-20T20:56:16.641Z,98487.94
2023-03-20T20:58:42.979Z,98494.78
2023-03-20T21:01:09.320Z,98484.44
2023-03-20T21:03:36.592Z,98490.16
2023-03-20T21:06:03.899Z,98493.03
2023-03-20T21:08:30.361Z,98488.78
2023-03-20T21:10:56.679Z,98490.41
2023-03-20T21:13:23.005Z,98490.41
2023-03-20T21:15:57.262Z,98486.97
2023-03-20T21:18:23.698Z,98489.91
2023-03-20T21:20:50.026Z,98488.91
2023-03-20T21:23:16.356Z,98479.75
2023-03-20T21:25:46.374Z,98478.94
2023-03-20T21:28:13.631Z,98489.94
2023-03-20T21:30:50.001Z,98490.44
2023-03-20T21:33:28.109Z,98485.94
2023-03-20T21:35:54.483Z,98483.84
2023-03-20T21:41:08.286Z,98488.09
2023-03-20T21:43:34.848Z,98478.97
2023-03-20T21:49:43.083Z,98482.25
2023-03-20T21:55:00.615Z,98478.22
2023-03-20T22:02:43.549Z,98475.28
2023-03-20T22:05:43.364Z,98475.84
2023-03-20T22:14:28.564Z,98477.81
2023-03-20T22:28:02.647Z,98486.19
2023-03-20T22:31:10.215Z,98489.41
2023-03-20T22:36:25.016Z,98496.66
2023-03-20T22:44:50.122Z,98487.84
2023-03-20T22:46:50.585Z,98475.56
2023-03-20T22:49:16.943Z,98480.66
2023-03-20T22:51:55.617Z,98479.31
2023-03-20T22:54:29.573Z,98479.06
2023-03-20T22:56:56.063Z,98470.78
2023-03-20T22:59:22.369Z,98475.59
2023-03-20T23:01:48.698Z,98476.41
2023-03-20T23:04:15.057Z,98472.13
2023-03-20T23:06:41.432Z,98473.75
2023-03-20T23:09:15.223Z,98475.91
2023-03-20T23:11:42.787Z,98472.72
2023-03-20T23:14:18.256Z,98476.69
2023-03-20T23:16:46.769Z,98467.88
2023-03-20T23:19:13.115Z,98470.00
2023-03-20T23:21:39.447Z,98469.78
2023-03-20T23:24:05.852Z,98467.34
2023-03-20T23:26:32.385Z,98468.72
2023-03-20T23:28:58.868Z,98463.09
2023-03-20T23:31:25.611Z,98473.25
2023-03-20T23:33:54.102Z,98460.97
2023-03-20T23:36:34.986Z,98463.91
2023-03-20T23:39:02.384Z,98474.31
2023-03-20T23:41:57.729Z,98469.53
2023-03-20T23:44:15.008Z,98465.75
2023-03-20T23:46:41.338Z,98467.38
2023-03-20T23:49:07.682Z,98464.41
2023-03-20T23:51:34.008Z,98465.50
2023-03-20T23:54:00.342Z,98466.03
2023-03-20T23:56:26.859Z,98456.41
2023-03-20T23:59:01.122Z,98460.16
